Aviation Digital Data Service (ADDS)

Output produced by METARs form (2231 UTC 30 March 2017)
found at http://www.aviationweather.gov/adds/metars/
 
LFLB 302200Z AUTO 00000KT CAVOK 11/07 Q1023
TAF LFLB 301100Z 3012/3112 VRB02KT CAVOK
       
LFBZ 302200Z AUTO 21006KT 150V250 CAVOK 20/04 Q1017 TEMPO 20015G30KT
TAF LFBZ 301700Z 3018/3118 20010KT CAVOK 
     TEMPO 3018/3020 20010G20KT 
     TEMPO 3022/3103 20015G30KT 
     PROB30 
     TEMPO 3103/3105 27010G25KT 
     BECMG 3105/3107 VRB02KT 
     PROB40 
     TEMPO 3107/3118 4000 -SHRA BKN020TCU 
     PROB30 
     TEMPO 3116/3118 36015G35KT 2000 TSRA BKN010 BKN020CB
       
LFRT 302100Z AUTO 21007KT 180V240 CAVOK 14/08 Q1014
LFRM 302200Z AUTO 09002KT CAVOK 15/08 Q1016
TAF LFRM 301700Z 3018/3103 17004KT CAVOK
       
LFLW 302200Z AUTO 11012KT 080V140 CAVOK 13/M01 Q1021
TAF LFLW 301400Z 3015/3024 16010KT CAVOK 
     BECMG 3021/3024 16015G28KT
       
LFLC 302200Z AUTO VRB02KT CAVOK 15/M03 Q1020 BECMG 18013KT
TAF LFLC 302000Z 3021/3121 18013KT CAVOK 
     TEMPO 3101/3110 18017G28KT 
     BECMG 3112/3114 SCT040TCU BKN060 
     PROB30 
     TEMPO 3114/3118 30012KT 4000 SHRA 
     TEMPO 3118/3121 3000 SHRA FEW020CB BKN025TCU
       
LFOA 302200Z AUTO 14003KT CAVOK 14/08 Q1018
TAF LFOA 302000Z 3021/3121 10006KT CAVOK 
     TEMPO 3100/3109 19012KT 
     BECMG 3109/3111 25010KT BKN040TCU 
     TEMPO 3111/3120 24015G25KT 3000 SHRA SCT010 BKN030CB
       
LFSB 302200Z VRB02KT CAVOK 10/05 Q1022 NOSIG
TAF LFSB 301657Z 3018/3118 11005KT CAVOK 
     TEMPO 3113/3118 29010KT
       
LFQB 302200Z AUTO 17004KT CAVOK 08/05 Q1018
LFBL 302200Z AUTO 15008KT CAVOK 15/02 Q1019 NOSIG
TAF LFBL 301700Z 3018/3118 16008KT CAVOK 
     TEMPO 3108/3111 SCT050TCU BKN080 
     BECMG 3111/3113 28008KT BKN012 FEW040TCU OVC050 
     TEMPO 3111/3118 4000 SHRA BKN008 FEW030CB OVC040 
     PROB30 
     TEMPO 3112/3116 28020G30KT 3000 TSRA
       
LFBI 302200Z AUTO 16003KT CAVOK 14/07 Q1017 NOSIG
TAF LFBI 301700Z 3018/3118 17008KT CAVOK 
     PROB40 3100/3104 16012G22KT 
     BECMG 3104/3106 24010KT 
     PROB40 3106/3110 3000 -RA BKN012 
     PROB40 
     TEMPO 3112/3118 3000 -TSRA BKN012CB
       
LFBO 302200Z AUTO 14008KT CAVOK 15/05 Q1019 NOSIG
TAF LFBO 301700Z 3018/3124 13012KT CAVOK 
     BECMG 3114/3116 SCT040TCU FEW060CB BKN120 
     PROB40 
     TEMPO 3116/3119 28020G30KT 3000 TSRA 
     BECMG 3119/3122 SCT015 BKN050
       
LFMH 302200Z AUTO 22003KT 160V250 CAVOK 14/00 Q1022
TAF LFMH 301400Z 3015/3115 17010KT CAVOK 
     BECMG 3112/3115 18015G25KT
       
LFAQ 302200Z AUTO 13006KT CAVOK 14/08 Q1017
TAF LFAQ 301400Z 3015/3024 17008KT CAVOK
       
LFOJ 302200Z AUTO 16008KT CAVOK 16/06 Q1016
LFBU 302200Z AUTO 15010KT CAVOK 18/04 Q1017
TAF LFBU 301700Z 3018/3118 16008KT CAVOK 
     PROB40 3022/3105 15015G25KT 
     PROB40 3106/3111 3000 -RA BKN012 
     TEMPO 3111/3118 3000 -TSRA BKN012CB
       
LFLY 302200Z AUTO 15008KT 120V180 CAVOK 16/04 Q1022 NOSIG
TAF LFLY 301700Z 3018/3118 18010KT CAVOK 
     BECMG 3112/3114 18020G35KT
       
LFKJ 302200Z AUTO 05005KT CAVOK 09/08 Q1026 TEMPO BKN004
TAF LFKJ 302000Z 3021/3121 06004KT CAVOK 
     PROB30 
     TEMPO 3023/3106 5000 BKN004 
     BECMG 3108/3110 22010KT 9999 FEW030
       
LFMO 302200Z AUTO 00000KT CAVOK 10/07 Q1025 BECMG 4000 BR BKN005
TAF LFMO 302000Z 3021/3121 14005KT CAVOK 
     BECMG 3023/3101 VRB02KT 4000 BR BKN005 
     PROB40 
     TEMPO 3100/3104 0500 FG VV/// 
     BECMG 3109/3110 20012KT CAVOK 
     BECMG 3119/3121 VRB02KT
       
LFRK 302200Z AUTO 13005KT CAVOK 14/08 Q1014
TAF LFRK 301400Z 3015/3024 17012KT CAVOK
       
LFMV 302200Z AUTO 17002KT CAVOK 10/06 Q1025
TAF LFMV 301400Z 3015/3115 VRB05KT CAVOK 
     TEMPO 3015/3017 25008KT 
     TEMPO 3021/3106 2500 BR BKN005 
     PROB40 
     TEMPO 3100/3106 0500 FG VV/// 
     BECMG 3109/3112 19010KT
       
LFBC 302200Z AUTO 17006KT CAVOK 14/08 Q1017 NOSIG
TAF LFBC 302000Z 3021/3121 VRB02KT CAVOK 
     BECMG 3100/3102 BKN070TCU 
     TEMPO 3102/3104 32015G25KT 
     TEMPO 3104/3110 3000 SHRA BKN005 BKN010 BKN030 
     PROB40 
     TEMPO 3107/3110 1500 TSRA BKN003 BKN010CB BKN030 
     TEMPO 3110/3115 4000 SHRA FEW015 SCT025 BKN040TCU 
     BECMG 3115/3116 SCT040
       
LFLU 301800Z AUTO 16007KT CAVOK 20/03 Q1022
LFPG 302200Z 15006KT CAVOK 16/06 Q1017 NOSIG
TAF LFPG 301700Z 3018/3124 15010KT CAVOK 
     BECMG 3107/3110 21010KT 
     TEMPO 3110/3112 4000 -SHRA FEW020 BKN040TCU 
     TEMPO 3113/3118 4000 SHRA BKN020TCU 
     PROB30 
     TEMPO 3113/3118 2500 -TSRA SCT015CB 
     TEMPO 3119/3124 4000 -SHRA FEW015TCU TX18/3114Z TN12/3105Z
       
LFBG 302200Z AUTO 14008KT CAVOK 15/07 Q1016 NOSIG
TAF LFBG 302000Z 3021/3121 15008KT CAVOK 
     BECMG 3107/3109 22010KT 6000 RA BKN015 SCT020TCU BKN050 
     BECMG 3112/3114 CAVOK
       
LFOC 302200Z AUTO 14004KT 360V160 CAVOK 12/08 Q1017
LFPT 302200Z AUTO VRB03KT CAVOK 11/07 Q1016
LFMN 302200Z 33009KT CAVOK 13/07 Q1025 NOSIG
TAF LFMN 302000Z 3021/0103 33004KT CAVOK 
     PROB30 
     TEMPO 3021/3109 4000 BR BKN006
       
LFLX 302200Z AUTO 16005KT CAVOK 14/08 Q1017 NOSIG
TAF LFLX 301700Z 3018/3124 18007KT CAVOK 
     TEMPO 3110/3118 -SHRA BKN018 SCT025TCU 
     PROB40 
     TEMPO 3113/3122 22015G25KT 4000 SHRA BKN008 SCT018CB 
     PROB30 
     TEMPO 3115/3118 -TSRA
       
LFOV 302200Z AUTO 17005KT CAVOK 15/09 Q1015
LFST 302200Z AUTO 24003KT CAVOK 10/06 Q1021 NOSIG
TAF LFST 301700Z 3018/3118 VRB03KT CAVOK 
     BECMG 3107/3110 18007KT 
     PROB40 
     TEMPO 3113/3117 24010KT
       
LFSN 302200Z AUTO 11004KT CAVOK 09/06 Q1021
LFOE 302200Z AUTO 14007KT CAVOK 16/07 Q1016
TAF LFOE 302000Z 3021/3121 16005KT CAVOK 
     BECMG 3106/3109 22010G20KT 4000 RA 
     PROB40 
     TEMPO 3109/3113 -SHRA SCT010 BKN020TCU 
     BECMG 3113/3115 8000 NSW 
     TEMPO 3115/3121 22015G25KT 3000 SHRA SCT015 BKN025TCU
       
LFQG 301800Z AUTO 12004KT CAVOK 20/08 Q1019
LFTW 302200Z AUTO 14006KT 8000 NSC 12/11 Q1025
TAF LFTW 301400Z 3015/3115 18008KT CAVOK 
     PROB30 
     TEMPO 3018/3021 BKN010 
     BECMG 3021/3024 VRB03KT BKN010 
     BECMG 3109/3112 SCT015 BKN120 
     BECMG 3112/3115 18010KT
       
LFRB 302200Z AUTO 20012KT 9999 FEW025 SCT045 BKN076 12/10 Q1013 TEMPO 2000 RADZ BKN005 BECMG 22015G25KT
TAF LFRB 301700Z 3018/3124 18010KT 9999 SCT020 BKN100 
     BECMG 3019/3022 22015G25KT 4000 -RA BKN008 
     TEMPO 3022/3103 2000 RADZ BKN005 
     BECMG 3103/3106 9999 NSW BKN015 
     BECMG 3109/3112 SCT029 
     TEMPO 3112/3118 4000 SHRA BKN015TCU
       
LFGA 302200Z AUTO 27007KT CAVOK 14/06 Q1022
LFBH 302200Z AUTO 15007KT CAVOK 18/09 Q1015 NOSIG
TAF LFBH 301700Z 3018/3118 16010KT CAVOK 
     PROB30 3100/3103 20015G25KT 
     BECMG 3103/3105 30010KT 
     PROB40 3105/3109 3000 -RA BKN012 
     PROB30 3109/3118 20015G25KT 3000 -TSRA BKN012CB
       
LFBA 302200Z AUTO 11006KT CAVOK 13/07 Q1018
TAF LFBA 301400Z 3015/3024 11010KT CAVOK
       
LFRJ 302200Z AUTO 26005KT CAVOK 12/09 Q1013
TAF LFRJ 302000Z 3021/3106 18010KT CAVOK 
     BECMG 3022/3024 BKN010 OVC015 
     TEMPO 3100/3106 20015G25KT 4000 RA BKN007 OVC015
       
LFRH 302200Z AUTO VRB02KT CAVOK 11/10 Q1014 TEMPO 3000 BR BECMG BKN010
TAF AMD LFRH 301933Z 3019/3118 15010KT CAVOK 
     TEMPO 3021/3023 3000 BR BKN005 
     BECMG 3023/3024 25010KT 5000 RADZ BKN010 
     TEMPO 3100/3106 24010G20KT 
     BECMG 3103/3105 NSW SCT010 
     BECMG 3112/3114 20015G30KT 
     TEMPO 3112/3118 5000 SHRA BKN010TCU
       
LFRO 302200Z AUTO 14005KT CAVOK 13/09 Q1012
TAF LFRO 301100Z 3012/3112 16014KT CAVOK 
     TEMPO 3013/3016 17015G25KT 
     TEMPO 3100/3103 3000 RADZ BKN007 BKN020 
     BECMG 3103/3106 NSW SCT015
       
LFPB 302200Z AUTO 00000KT CAVOK 14/06 Q1017 BECMG 15010KT
TAF LFPB 301700Z 3018/3118 15010KT CAVOK 
     BECMG 3107/3110 21010KT 
     TEMPO 3110/3112 4000 -SHRA FEW020 BKN040TCU 
     TEMPO 3113/3118 4000 SHRA BKN020TCU 
     PROB30 
     TEMPO 3113/3118 2500 -TSRA SCT015CB
       
LFMC 302200Z AUTO 00000KT 9999 ////// 11/09 Q1025
LFTH 302200Z AUTO 00000KT CAVOK 10/08 Q1025 TEMPO 0500 FG VV///
TAF LFTH 302000Z 3021/3121 VRB03KT 8000 NSC 
     PROB40 
     TEMPO 3021/3106 3000 BR 
     PROB30 
     TEMPO 3021/3106 0500 FG VV/// 
     BECMG 3110/3112 12008KT CAVOK 
     TEMPO 3112/3121 SCT016
       
LFAT 302200Z AUTO 12006KT CAVOK 13/08 Q1016
TAF LFAT 301400Z 3015/3024 16008KT CAVOK
       
LFMI 302200Z AUTO 14001KT CAVOK 12/07 Q1025 TEMPO 0500 FG VV///
TAF LFMI 302000Z 3021/3121 15006KT 9999 SCT008 
     PROB40 
     TEMPO 3022/3106 0500 FG VV/// 
     BECMG 3108/3110 CAVOK 
     BECMG 3110/3112 17013KT 
     BECMG 3116/3118 SCT013 
     PROB40 
     TEMPO 3119/3121 BKN010
       
LFRI 302200Z AUTO 16005KT CAVOK 14/08 Q1015
TAF LFRI 301700Z 3018/3118 18008KT CAVOK 
     BECMG 3101/3103 29010KT BKN014 
     TEMPO 3104/3110 4000 -RADZ BKN006 
     BECMG 3110/3112 BKN020
       
LFQQ 302200Z AUTO 15005KT CAVOK 14/08 Q1017 NOSIG
TAF LFQQ 301700Z 3018/3124 15008KT CAVOK 
     BECMG 3108/3110 21010KT 
     TEMPO 3113/3121 4000 SHRA BKN020 BKN040TCU 
     PROB30 
     TEMPO 3113/3118 VRB20G30KT 2000 TSRA BKN013 BKN040CB 
     BECMG 3113/3115 27010KT 
     BECMG 3119/3121 19005KT
       
LFSD 302200Z AUTO 00000KT CAVOK 09/06 Q1021
LFBT 302200Z AUTO 16003KT CAVOK 13/08 Q1018 NOSIG
TAF LFBT 301700Z 3018/3118 05010KT CAVOK 
     BECMG 3020/3022 20006KT 
     PROB30 
     TEMPO 3105/3107 30010G20KT 
     BECMG 3107/3109 VRB02KT 
     PROB40 
     TEMPO 3110/3118 4000 -SHRA BKN025TCU 
     PROB30 
     TEMPO 3116/3118 12015G35KT 2000 TSRAGR BKN015 BKN020CB
       
LFMD 302200Z AUTO VRB02KT CAVOK 10/08 Q1025
TAF LFMD 301400Z 3015/3115 18008KT CAVOK 
     BECMG 3017/3020 VRB03KT 
     PROB30 
     TEMPO 3015/3103 4000 BR BKN006 
     BECMG 3107/3109 16006KT
       
LFJR 302200Z AUTO 15005KT CAVOK 16/08 Q1015
LFCR 302200Z AUTO 13014KT CAVOK 13/M01 Q1021 BECMG 14015G25KT
TAF LFCR 301700Z 3018/3118 14012KT CAVOK 
     BECMG 3018/3020 14015G25KT 
     BECMG 3106/3109 14010KT 
     BECMG 3112/3114 FEW040TCU BKN080
       
LFRC 302200Z AUTO 17008KT CAVOK 15/09 Q1013
TAF LFRC 301400Z 3015/3024 17012KT CAVOK
       
LFCK 302200Z AUTO 12026KT 080V140 CAVOK 16/04 Q1020
TAF LFCK 301700Z 3018/3103 11022G32KT CAVOK
       
LFMT 302200Z 01006KT CAVOK 11/09 Q1024 NOSIG
TAF LFMT 302000Z 3021/3121 06008KT CAVOK 
     BECMG 3021/3023 BKN010 
     TEMPO 3100/3107 2000 BR BKN005 
     BECMG 3109/3111 13010KT 
     TEMPO 3112/3117 SCT010 BKN120
       
LFBD 302200Z AUTO 15009KT CAVOK 19/07 Q1017 NOSIG
TAF LFBD 301700Z 3018/3124 12010KT CAVOK 
     BECMG 3102/3104 30007KT 
     PROB40 3108/3112 3000 -RA BKN012 
     PROB30 
     TEMPO 3112/3118 3000 -TSRA BKN012CB TX16/3115Z TN12/3106Z
       
LFJL 302200Z AUTO 11011KT CAVOK 13/07 Q1020 NOSIG
TAF LFJL 301700Z 3018/3118 11008KT CAVOK 
     BECMG 3105/3108 18010KT 
     TEMPO 3108/3114 19011G22KT
       
LFRV 302200Z AUTO 15008KT CAVOK 12/10 Q1013
LFLP 302200Z AUTO VRB02KT CAVOK 11/05 Q1024
TAF LFLP 301400Z 3015/3115 VRB04KT CAVOK 
     BECMG 3109/3112 23012KT
       
LFSG 302200Z AUTO VRB03KT CAVOK 11/06 Q1021
LFBM 302200Z AUTO 09004KT CAVOK 16/08 Q1017 NOSIG
TAF LFBM 302000Z 3021/3121 10005KT CAVOK 
     TEMPO 3100/3108 27010KT 
     BECMG 3108/3110 30010KT SHRA BKN015 BKN060TCU BKN100 
     TEMPO 3115/3121 36010G20KT TSRA SCT010 BKN035CB BKN060
       
LFRZ 302200Z AUTO 14003KT CAVOK 12/09 Q1014 NOSIG
TAF LFRZ 301700Z 3018/3118 19010KT CAVOK 
     BECMG 3101/3103 25010KT BKN012 
     TEMPO 3103/3109 4000 -RA BKN005 
     BECMG 3109/3111 BKN035
       
LFRS 302200Z AUTO 16005KT CAVOK 13/08 Q1014 NOSIG
TAF LFRS 301700Z 3018/3124 18005KT CAVOK 
     BECMG 3101/3103 26010KT BKN014 
     TEMPO 3104/3110 4000 -RADZ OVC005 
     BECMG 3110/3112 BKN030 
     TEMPO 3120/3124 -SHRA BKN025TCU
       
LFSO 302200Z AUTO 13006KT CAVOK 13/07 Q1020 NOSIG
TAF LFSO 302000Z 3021/3121 12005KT CAVOK
       
LFOH 302200Z AUTO 14007KT 100V180 CAVOK 18/07 Q1015
TAF LFOH 301100Z 3012/3112 15008KT CAVOK 
     PROB40 
     TEMPO 3107/3112 4000 SHRA BKN020TCU
       
LFPO 302200Z 19003KT CAVOK 16/05 Q1017 NOSIG
TAF LFPO 301700Z 3018/3124 14005KT CAVOK 
     BECMG 3108/3110 21010KT 9999 SCT030 BKN060 
     TEMPO 3110/3118 -SHRA SCT030TCU BKN070 
     PROB40 
     TEMPO 3112/3115 SHRA BKN030CB 
     BECMG 3118/3120 SCT030 
     BECMG 3120/3122 CAVOK
       
LFBP 302200Z AUTO 14008KT CAVOK 18/08 Q1017 NOSIG
TAF LFBP 301700Z 3018/3118 10005KT CAVOK 
     PROB30 
     TEMPO 3103/3107 30010G20KT 
     PROB40 
     TEMPO 3107/3118 4000 -SHRA BKN020TCU 
     PROB30 
     TEMPO 3113/3118 11015G35KT 2000 TSRAGR BKN012 BKN020CB
       
LFRD 302200Z AUTO 21006KT CAVOK 15/08 Q1013 NOSIG
TAF LFRD 301700Z 3018/3118 17010KT CAVOK 
     BECMG 3100/3103 23010KT 
     BECMG 3103/3105 4000 RADZ BKN008 
     BECMG 3107/3109 9999 NSW BKN020 
     BECMG 3110/3112 21015G25KT 
     PROB30 
     TEMPO 3110/3112 5000 SHRA
       
LFRU 302000Z AUTO 15006KT CAVOK 14/09 Q1013
LFRQ 302200Z AUTO 21005KT 170V240 7000 OVC004 11/11 Q1014 TEMPO 2000 RADZ BKN005 BECMG 22015G25KT
TAF LFRQ 301700Z 3018/3103 17012KT 9999 SCT020 BKN100 
     BECMG 3019/3022 22015G25KT 4000 -RA BKN008 
     TEMPO 3022/3103 2000 RADZ BKN005
       
LFKB 302200Z 00000KT CAVOK 11/09 Q1025 NOSIG
TAF LFKB 302000Z 3021/3121 24004KT CAVOK 
     TEMPO 3105/3108 9999 BKN026 
     BECMG 3108/3110 06006KT FEW030 
     BECMG 3119/3121 24004KT BKN020 TX19/3113Z TN08/3103Z
       
LFRL 302200Z AUTO 18010KT 9999 FEW042 BKN050 BKN080 12/10 Q1013
TAF AMD LFRL 301709Z 3017/3024 17012G22KT CAVOK 
     PROB40 
     TEMPO 3018/3021 BKN010 
     BECMG 3021/3023 3000 RADZ SCT005 BKN010 BKN015 
     PROB40 
     TEMPO 3022/3024 BKN005
       
LFML 302200Z AUTO 14003KT CAVOK 14/04 Q1025 TEMPO 1500 BCFG BKN005
TAF LFML 302000Z 3021/0103 VRB04KT CAVOK 
     BECMG 3022/3024 SCT010 
     PROB30 
     TEMPO 3023/3101 1500 BCFG BKN005 
     BECMG 3104/3106 CAVOK 
     BECMG 3110/3112 18013KT 
     TEMPO 3118/3122 SCT013 
     BECMG 3122/3124 12005KT TX20/3112Z TN08/3105Z
       
LFQA 302200Z AUTO 10006KT CAVOK 09/07 Q1018
LFMP 302200Z AUTO 34006KT CAVOK 14/07 Q1020
TAF LFMP 301400Z 3015/3115 10012KT CAVOK 
     BECMG 3021/3024 VRB03KT 
     BECMG 3112/3115 12015KT
       
LFSI 302200Z AUTO 10007KT 9999 ////// 12/06 Q1019
TAF LFSI 302000Z 3021/3121 11005KT CAVOK 
     BECMG 3116/3118 BKN030TCU 
     TEMPO 3116/3121 20015G25KT 2000 SHRA
       
LFBE 302200Z AUTO 07004KT 050V110 CAVOK 15/06 Q1018
TAF LFBE 301100Z 3012/3112 12008KT CAVOK 
     PROB40 3109/3112 3000 -RA BKN012 SCT020TCU
       
LFKC 302200Z AUTO 21003KT CAVOK 09/06 Q1026 NOSIG
TAF LFKC 301700Z 3018/3118 19005KT 9999 FEW050 
     TEMPO 3018/3024 SCT010 
     BECMG 3107/3109 35010KT TX20/3112Z TN06/3105Z
       
LFLL 302200Z 17007KT CAVOK 17/03 Q1022 NOSIG
TAF LFLL 301700Z 3018/3124 18010KT CAVOK 
     TEMPO 3106/3117 18015G25KT 
     PROB40 
     TEMPO 3109/3113 18020G35KT 
     PROB30 3122/3124 18015G30KT -SHRA SCT080TCU
       
LFLS 302200Z AUTO 22008KT CAVOK 15/00 Q1023
TAF LFLS 301400Z 3015/3115 21005KT CAVOK 
     BECMG 3100/3102 09004KT 
     BECMG 3108/3111 21015KT
       
LFSX 302200Z AUTO 06003KT CAVOK 11/04 Q1021 NOSIG
TAF LFSX 302000Z 3021/3121 VRB05KT CAVOK 
     BECMG 3108/3111 21010KT 
     TEMPO 3112/3115 21010G20KT 
     BECMG 3117/3120 VRB05KT
       
LFLN 302200Z AUTO 18006KT CAVOK 15/02 Q1020 NOSIG
TAF LFLN 301630Z 3018/3103 12005KT CAVOK 
     BECMG 3018/3021 18012KT
       
LFMY 302200Z AUTO 04002KT CAVOK 08/05 Q1025
TAF LFMY 301400Z 3015/3115 21010KT CAVOK 
     BECMG 3020/3022 VRB02KT 3000 BR 
     TEMPO 3022/3103 0800 FG
       
LFMK 302200Z AUTO 11007KT 080V150 CAVOK 14/08 Q1021
TAF LFMK 301400Z 3015/3115 09018KT CAVOK 
     TEMPO 3015/3018 09018G28KT 
     PROB30 
     TEMPO 3018/3021 BKN010 
     BECMG 3021/3024 BKN010 
     TEMPO 3112/3115 09018G28KT SCT015 BKN120
       
LFKS 302200Z AUTO 25003KT 200V300 CAVOK 12/04 Q1026
TAF AMD LFKS 301405Z 3015/3115 27005KT CAVOK 
     BECMG 3110/3112 12010KT
       
LFAQ 302200Z AUTO 13006KT CAVOK 14/08 Q1017
TAF LFAQ 301400Z 3015/3024 17008KT CAVOK
       
LFAT 302200Z AUTO 12006KT CAVOK 13/08 Q1016
TAF LFAT 301400Z 3015/3024 16008KT CAVOK
       
LFBA 302200Z AUTO 11006KT CAVOK 13/07 Q1018
TAF LFBA 301400Z 3015/3024 11010KT CAVOK
       
LFBC 302200Z AUTO 17006KT CAVOK 14/08 Q1017 NOSIG
TAF LFBC 302000Z 3021/3121 VRB02KT CAVOK 
     BECMG 3100/3102 BKN070TCU 
     TEMPO 3102/3104 32015G25KT 
     TEMPO 3104/3110 3000 SHRA BKN005 BKN010 BKN030 
     PROB40 
     TEMPO 3107/3110 1500 TSRA BKN003 BKN010CB BKN030 
     TEMPO 3110/3115 4000 SHRA FEW015 SCT025 BKN040TCU 
     BECMG 3115/3116 SCT040
       
LFBD 302200Z AUTO 15009KT CAVOK 19/07 Q1017 NOSIG
TAF LFBD 301700Z 3018/3124 12010KT CAVOK 
     BECMG 3102/3104 30007KT 
     PROB40 3108/3112 3000 -RA BKN012 
     PROB30 
     TEMPO 3112/3118 3000 -TSRA BKN012CB TX16/3115Z TN12/3106Z
       
LFBE 302200Z AUTO 07004KT 050V110 CAVOK 15/06 Q1018
TAF LFBE 301100Z 3012/3112 12008KT CAVOK 
     PROB40 3109/3112 3000 -RA BKN012 SCT020TCU
       
LFBG 302200Z AUTO 14008KT CAVOK 15/07 Q1016 NOSIG
TAF LFBG 302000Z 3021/3121 15008KT CAVOK 
     BECMG 3107/3109 22010KT 6000 RA BKN015 SCT020TCU BKN050 
     BECMG 3112/3114 CAVOK
       
LFBH 302200Z AUTO 15007KT CAVOK 18/09 Q1015 NOSIG
TAF LFBH 301700Z 3018/3118 16010KT CAVOK 
     PROB30 3100/3103 20015G25KT 
     BECMG 3103/3105 30010KT 
     PROB40 3105/3109 3000 -RA BKN012 
     PROB30 3109/3118 20015G25KT 3000 -TSRA BKN012CB
       
LFBI 302200Z AUTO 16003KT CAVOK 14/07 Q1017 NOSIG
TAF LFBI 301700Z 3018/3118 17008KT CAVOK 
     PROB40 3100/3104 16012G22KT 
     BECMG 3104/3106 24010KT 
     PROB40 3106/3110 3000 -RA BKN012 
     PROB40 
     TEMPO 3112/3118 3000 -TSRA BKN012CB
       
LFBL 302200Z AUTO 15008KT CAVOK 15/02 Q1019 NOSIG
TAF LFBL 301700Z 3018/3118 16008KT CAVOK 
     TEMPO 3108/3111 SCT050TCU BKN080 
     BECMG 3111/3113 28008KT BKN012 FEW040TCU OVC050 
     TEMPO 3111/3118 4000 SHRA BKN008 FEW030CB OVC040 
     PROB30 
     TEMPO 3112/3116 28020G30KT 3000 TSRA
       
LFBM 302200Z AUTO 09004KT CAVOK 16/08 Q1017 NOSIG
TAF LFBM 302000Z 3021/3121 10005KT CAVOK 
     TEMPO 3100/3108 27010KT 
     BECMG 3108/3110 30010KT SHRA BKN015 BKN060TCU BKN100 
     TEMPO 3115/3121 36010G20KT TSRA SCT010 BKN035CB BKN060
       
LFBO 302200Z AUTO 14008KT CAVOK 15/05 Q1019 NOSIG
TAF LFBO 301700Z 3018/3124 13012KT CAVOK 
     BECMG 3114/3116 SCT040TCU FEW060CB BKN120 
     PROB40 
     TEMPO 3116/3119 28020G30KT 3000 TSRA 
     BECMG 3119/3122 SCT015 BKN050
       
LFBP 302200Z AUTO 14008KT CAVOK 18/08 Q1017 NOSIG
TAF LFBP 301700Z 3018/3118 10005KT CAVOK 
     PROB30 
     TEMPO 3103/3107 30010G20KT 
     PROB40 
     TEMPO 3107/3118 4000 -SHRA BKN020TCU 
     PROB30 
     TEMPO 3113/3118 11015G35KT 2000 TSRAGR BKN012 BKN020CB
       
LFBT 302200Z AUTO 16003KT CAVOK 13/08 Q1018 NOSIG
TAF LFBT 301700Z 3018/3118 05010KT CAVOK 
     BECMG 3020/3022 20006KT 
     PROB30 
     TEMPO 3105/3107 30010G20KT 
     BECMG 3107/3109 VRB02KT 
     PROB40 
     TEMPO 3110/3118 4000 -SHRA BKN025TCU 
     PROB30 
     TEMPO 3116/3118 12015G35KT 2000 TSRAGR BKN015 BKN020CB
       
LFBU 302200Z AUTO 15010KT CAVOK 18/04 Q1017
TAF LFBU 301700Z 3018/3118 16008KT CAVOK 
     PROB40 3022/3105 15015G25KT 
     PROB40 3106/3111 3000 -RA BKN012 
     TEMPO 3111/3118 3000 -TSRA BKN012CB
       
LFBY 302200Z AUTO 19003KT 9999 // ////// 18/06 Q1017
LFBZ 302200Z AUTO 21006KT 150V250 CAVOK 20/04 Q1017 TEMPO 20015G30KT
TAF LFBZ 301700Z 3018/3118 20010KT CAVOK 
     TEMPO 3018/3020 20010G20KT 
     TEMPO 3022/3103 20015G30KT 
     PROB30 
     TEMPO 3103/3105 27010G25KT 
     BECMG 3105/3107 VRB02KT 
     PROB40 
     TEMPO 3107/3118 4000 -SHRA BKN020TCU 
     PROB30 
     TEMPO 3116/3118 36015G35KT 2000 TSRA BKN010 BKN020CB
       
LFCK 302200Z AUTO 12026KT 080V140 CAVOK 16/04 Q1020
TAF LFCK 301700Z 3018/3103 11022G32KT CAVOK
       
LFCR 302200Z AUTO 13014KT CAVOK 13/M01 Q1021 BECMG 14015G25KT
TAF LFCR 301700Z 3018/3118 14012KT CAVOK 
     BECMG 3018/3020 14015G25KT 
     BECMG 3106/3109 14010KT 
     BECMG 3112/3114 FEW040TCU BKN080
       
LFGA 302200Z AUTO 27007KT CAVOK 14/06 Q1022
LFGJ 302200Z AUTO 15005KT CAVOK 09/07 Q1021
TAF LFGJ 301401Z 3015/3024 15005KT CAVOK
       
LFJL 302200Z AUTO 11011KT CAVOK 13/07 Q1020 NOSIG
TAF LFJL 301700Z 3018/3118 11008KT CAVOK 
     BECMG 3105/3108 18010KT 
     TEMPO 3108/3114 19011G22KT
       
LFJR 302200Z AUTO 15005KT CAVOK 16/08 Q1015
LFKB 302200Z 00000KT CAVOK 11/09 Q1025 NOSIG
TAF LFKB 302000Z 3021/3121 24004KT CAVOK 
     TEMPO 3105/3108 9999 BKN026 
     BECMG 3108/3110 06006KT FEW030 
     BECMG 3119/3121 24004KT BKN020 TX19/3113Z TN08/3103Z
       
LFKC 302200Z AUTO 21003KT CAVOK 09/06 Q1026 NOSIG
TAF LFKC 301700Z 3018/3118 19005KT 9999 FEW050 
     TEMPO 3018/3024 SCT010 
     BECMG 3107/3109 35010KT TX20/3112Z TN06/3105Z
       
LFKF 302200Z AUTO 03004KT 9999 BKN006 07/06 Q1026
TAF LFKF 301400Z 3015/3115 26008KT 9999 FEW035
       
LFKJ 302200Z AUTO 05005KT CAVOK 09/08 Q1026 TEMPO BKN004
TAF LFKJ 302000Z 3021/3121 06004KT CAVOK 
     PROB30 
     TEMPO 3023/3106 5000 BKN004 
     BECMG 3108/3110 22010KT 9999 FEW030
       
LFKS 302200Z AUTO 25003KT 200V300 CAVOK 12/04 Q1026
TAF AMD LFKS 301405Z 3015/3115 27005KT CAVOK 
     BECMG 3110/3112 12010KT
       
LFLB 302200Z AUTO 00000KT CAVOK 11/07 Q1023
TAF LFLB 301100Z 3012/3112 VRB02KT CAVOK
       
LFLC 302200Z AUTO VRB02KT CAVOK 15/M03 Q1020 BECMG 18013KT
TAF LFLC 302000Z 3021/3121 18013KT CAVOK 
     TEMPO 3101/3110 18017G28KT 
     BECMG 3112/3114 SCT040TCU BKN060 
     PROB30 
     TEMPO 3114/3118 30012KT 4000 SHRA 
     TEMPO 3118/3121 3000 SHRA FEW020CB BKN025TCU
       
LFLL 302200Z 17007KT CAVOK 17/03 Q1022 NOSIG
TAF LFLL 301700Z 3018/3124 18010KT CAVOK 
     TEMPO 3106/3117 18015G25KT 
     PROB40 
     TEMPO 3109/3113 18020G35KT 
     PROB30 3122/3124 18015G30KT -SHRA SCT080TCU
       
LFLN 302200Z AUTO 18006KT CAVOK 15/02 Q1020 NOSIG
TAF LFLN 301630Z 3018/3103 12005KT CAVOK 
     BECMG 3018/3021 18012KT
       
LFLP 302200Z AUTO VRB02KT CAVOK 11/05 Q1024
TAF LFLP 301400Z 3015/3115 VRB04KT CAVOK 
     BECMG 3109/3112 23012KT
       
LFLS 302200Z AUTO 22008KT CAVOK 15/00 Q1023
TAF LFLS 301400Z 3015/3115 21005KT CAVOK 
     BECMG 3100/3102 09004KT 
     BECMG 3108/3111 21015KT
       
LFLU 301800Z AUTO 16007KT CAVOK 20/03 Q1022
LFLW 302200Z AUTO 11012KT 080V140 CAVOK 13/M01 Q1021
TAF LFLW 301400Z 3015/3024 16010KT CAVOK 
     BECMG 3021/3024 16015G28KT
       
LFLX 302200Z AUTO 16005KT CAVOK 14/08 Q1017 NOSIG
TAF LFLX 301700Z 3018/3124 18007KT CAVOK 
     TEMPO 3110/3118 -SHRA BKN018 SCT025TCU 
     PROB40 
     TEMPO 3113/3122 22015G25KT 4000 SHRA BKN008 SCT018CB 
     PROB30 
     TEMPO 3115/3118 -TSRA
       
LFLY 302200Z AUTO 15008KT 120V180 CAVOK 16/04 Q1022 NOSIG
TAF LFLY 301700Z 3018/3118 18010KT CAVOK 
     BECMG 3112/3114 18020G35KT
       
LFMC 302200Z AUTO 00000KT 9999 ////// 11/09 Q1025
LFMD 302200Z AUTO VRB02KT CAVOK 10/08 Q1025
TAF LFMD 301400Z 3015/3115 18008KT CAVOK 
     BECMG 3017/3020 VRB03KT 
     PROB30 
     TEMPO 3015/3103 4000 BR BKN006 
     BECMG 3107/3109 16006KT
       
LFMH 302200Z AUTO 22003KT 160V250 CAVOK 14/00 Q1022
TAF LFMH 301400Z 3015/3115 17010KT CAVOK 
     BECMG 3112/3115 18015G25KT
       
LFMI 302200Z AUTO 14001KT CAVOK 12/07 Q1025 TEMPO 0500 FG VV///
TAF LFMI 302000Z 3021/3121 15006KT 9999 SCT008 
     PROB40 
     TEMPO 3022/3106 0500 FG VV/// 
     BECMG 3108/3110 CAVOK 
     BECMG 3110/3112 17013KT 
     BECMG 3116/3118 SCT013 
     PROB40 
     TEMPO 3119/3121 BKN010
       
LFMK 302200Z AUTO 11007KT 080V150 CAVOK 14/08 Q1021
TAF LFMK 301400Z 3015/3115 09018KT CAVOK 
     TEMPO 3015/3018 09018G28KT 
     PROB30 
     TEMPO 3018/3021 BKN010 
     BECMG 3021/3024 BKN010 
     TEMPO 3112/3115 09018G28KT SCT015 BKN120
       
LFML 302200Z AUTO 14003KT CAVOK 14/04 Q1025 TEMPO 1500 BCFG BKN005
TAF LFML 302000Z 3021/0103 VRB04KT CAVOK 
     BECMG 3022/3024 SCT010 
     PROB30 
     TEMPO 3023/3101 1500 BCFG BKN005 
     BECMG 3104/3106 CAVOK 
     BECMG 3110/3112 18013KT 
     TEMPO 3118/3122 SCT013 
     BECMG 3122/3124 12005KT TX20/3112Z TN08/3105Z
       
LFMN 302200Z 33009KT CAVOK 13/07 Q1025 NOSIG
TAF LFMN 302000Z 3021/0103 33004KT CAVOK 
     PROB30 
     TEMPO 3021/3109 4000 BR BKN006
       
LFMO 302200Z AUTO 00000KT CAVOK 10/07 Q1025 BECMG 4000 BR BKN005
TAF LFMO 302000Z 3021/3121 14005KT CAVOK 
     BECMG 3023/3101 VRB02KT 4000 BR BKN005 
     PROB40 
     TEMPO 3100/3104 0500 FG VV/// 
     BECMG 3109/3110 20012KT CAVOK 
     BECMG 3119/3121 VRB02KT
       
LFMP 302200Z AUTO 34006KT CAVOK 14/07 Q1020
TAF LFMP 301400Z 3015/3115 10012KT CAVOK 
     BECMG 3021/3024 VRB03KT 
     BECMG 3112/3115 12015KT
       
LFMT 302200Z 01006KT CAVOK 11/09 Q1024 NOSIG
TAF LFMT 302000Z 3021/3121 06008KT CAVOK 
     BECMG 3021/3023 BKN010 
     TEMPO 3100/3107 2000 BR BKN005 
     BECMG 3109/3111 13010KT 
     TEMPO 3112/3117 SCT010 BKN120
       
LFMU 302200Z AUTO 09006KT CAVOK 13/09 Q1023
TAF LFMU 301400Z 3015/3115 12010KT CAVOK 
     PROB30 
     TEMPO 3015/3018 BKN008 
     BECMG 3018/3022 06012KT BKN010
       
LFMV 302200Z AUTO 17002KT CAVOK 10/06 Q1025
TAF LFMV 301400Z 3015/3115 VRB05KT CAVOK 
     TEMPO 3015/3017 25008KT 
     TEMPO 3021/3106 2500 BR BKN005 
     PROB40 
     TEMPO 3100/3106 0500 FG VV/// 
     BECMG 3109/3112 19010KT
       
LFMY 302200Z AUTO 04002KT CAVOK 08/05 Q1025
TAF LFMY 301400Z 3015/3115 21010KT CAVOK 
     BECMG 3020/3022 VRB02KT 3000 BR 
     TEMPO 3022/3103 0800 FG
       
LFOA 302200Z AUTO 14003KT CAVOK 14/08 Q1018
TAF LFOA 302000Z 3021/3121 10006KT CAVOK 
     TEMPO 3100/3109 19012KT 
     BECMG 3109/3111 25010KT BKN040TCU 
     TEMPO 3111/3120 24015G25KT 3000 SHRA SCT010 BKN030CB
       
LFOB 302200Z AUTO 11007KT CAVOK 13/06 Q1017 NOSIG
TAF LFOB 301700Z 3018/3118 13007KT CAVOK 
     BECMG 3108/3110 20012KT 
     TEMPO 3110/3118 4000 SHRA BKN030TCU 
     PROB30 
     TEMPO 3112/3115 20015G25KT 2000 TSRA BKN013CB
       
LFOC 302200Z AUTO 14004KT 360V160 CAVOK 12/08 Q1017
LFOE 302200Z AUTO 14007KT CAVOK 16/07 Q1016
TAF LFOE 302000Z 3021/3121 16005KT CAVOK 
     BECMG 3106/3109 22010G20KT 4000 RA 
     PROB40 
     TEMPO 3109/3113 -SHRA SCT010 BKN020TCU 
     BECMG 3113/3115 8000 NSW 
     TEMPO 3115/3121 22015G25KT 3000 SHRA SCT015 BKN025TCU
       
LFOH 302200Z AUTO 14007KT 100V180 CAVOK 18/07 Q1015
TAF LFOH 301100Z 3012/3112 15008KT CAVOK 
     PROB40 
     TEMPO 3107/3112 4000 SHRA BKN020TCU
       
LFOJ 302200Z AUTO 16008KT CAVOK 16/06 Q1016
LFOK 302200Z AUTO 15010KT CAVOK 12/06 Q1018 NOSIG
TAF LFOK 301700Z 3018/3118 13006KT CAVOK 
     BECMG 3105/3107 19010KT 
     BECMG 3112/3114 25012KT 
     TEMPO 3114/3118 4000 SHRA BKN040CB 
     PROB40 3114/3118 2000 TSRA BKN013 BKN030CB
       
LFOP 302200Z AUTO 14006KT CAVOK 13/06 Q1016
TAF LFOP 301700Z 3018/3118 16007KT CAVOK 
     BECMG 3108/3110 22010KT 
     TEMPO 3108/3118 4000 SHRA BKN030TCU 
     PROB30 
     TEMPO 3108/3115 2000 TSRA BKN013CB
       
LFOT 302200Z AUTO 13004KT CAVOK 14/07 Q1016 NOSIG
TAF LFOT 301700Z 3018/3118 18007KT CAVOK 
     TEMPO 3109/3118 -SHRA BKN018 SCT025TCU 
     PROB40 
     TEMPO 3112/3118 22015G25KT 4000 SHRA BKN008 SCT018CB
       
LFOV 302200Z AUTO 17005KT CAVOK 15/09 Q1015
LFPB 302200Z AUTO 00000KT CAVOK 14/06 Q1017 BECMG 15010KT
TAF LFPB 301700Z 3018/3118 15010KT CAVOK 
     BECMG 3107/3110 21010KT 
     TEMPO 3110/3112 4000 -SHRA FEW020 BKN040TCU 
     TEMPO 3113/3118 4000 SHRA BKN020TCU 
     PROB30 
     TEMPO 3113/3118 2500 -TSRA SCT015CB
       
LFPG 302200Z 15006KT CAVOK 16/06 Q1017 NOSIG
TAF LFPG 301700Z 3018/3124 15010KT CAVOK 
     BECMG 3107/3110 21010KT 
     TEMPO 3110/3112 4000 -SHRA FEW020 BKN040TCU 
     TEMPO 3113/3118 4000 SHRA BKN020TCU 
     PROB30 
     TEMPO 3113/3118 2500 -TSRA SCT015CB 
     TEMPO 3119/3124 4000 -SHRA FEW015TCU TX18/3114Z TN12/3105Z
       
LFPM 302200Z AUTO 15006KT CAVOK 13/07 Q1017
LFPN 302200Z AUTO 18006KT CAVOK 16/06 Q1017
TAF LFPN 301700Z 3018/3103 12005KT CAVOK
       
LFPO 302200Z 19003KT CAVOK 16/05 Q1017 NOSIG
TAF LFPO 301700Z 3018/3124 14005KT CAVOK 
     BECMG 3108/3110 21010KT 9999 SCT030 BKN060 
     TEMPO 3110/3118 -SHRA SCT030TCU BKN070 
     PROB40 
     TEMPO 3112/3115 SHRA BKN030CB 
     BECMG 3118/3120 SCT030 
     BECMG 3120/3122 CAVOK
       
LFPT 302200Z AUTO VRB03KT CAVOK 11/07 Q1016
LFPV 302200Z AUTO 16004KT CAVOK 17/05 Q1017 NOSIG
TAF LFPV 302000Z 3021/3121 15006KT CAVOK 
     TEMPO 3112/3118 5000 SHRA SCT025 BKN030TCU 
     PROB40 
     TEMPO 3113/3116 21015G25KT 3000 TSRA BKN015 BKN025CB
       
LFQA 302200Z AUTO 10006KT CAVOK 09/07 Q1018
LFQB 302200Z AUTO 17004KT CAVOK 08/05 Q1018
LFQG 301800Z AUTO 12004KT CAVOK 20/08 Q1019
LFQQ 302200Z AUTO 15005KT CAVOK 14/08 Q1017 NOSIG
TAF LFQQ 301700Z 3018/3124 15008KT CAVOK 
     BECMG 3108/3110 21010KT 
     TEMPO 3113/3121 4000 SHRA BKN020 BKN040TCU 
     PROB30 
     TEMPO 3113/3118 VRB20G30KT 2000 TSRA BKN013 BKN040CB 
     BECMG 3113/3115 27010KT 
     BECMG 3119/3121 19005KT
       
LFRB 302200Z AUTO 20012KT 9999 FEW025 SCT045 BKN076 12/10 Q1013 TEMPO 2000 RADZ BKN005 BECMG 22015G25KT
TAF LFRB 301700Z 3018/3124 18010KT 9999 SCT020 BKN100 
     BECMG 3019/3022 22015G25KT 4000 -RA BKN008 
     TEMPO 3022/3103 2000 RADZ BKN005 
     BECMG 3103/3106 9999 NSW BKN015 
     BECMG 3109/3112 SCT029 
     TEMPO 3112/3118 4000 SHRA BKN015TCU
       
LFRC 302200Z AUTO 17008KT CAVOK 15/09 Q1013
TAF LFRC 301400Z 3015/3024 17012KT CAVOK
       
LFRD 302200Z AUTO 21006KT CAVOK 15/08 Q1013 NOSIG
TAF LFRD 301700Z 3018/3118 17010KT CAVOK 
     BECMG 3100/3103 23010KT 
     BECMG 3103/3105 4000 RADZ BKN008 
     BECMG 3107/3109 9999 NSW BKN020 
     BECMG 3110/3112 21015G25KT 
     PROB30 
     TEMPO 3110/3112 5000 SHRA
       
LFRG 302200Z AUTO 19008KT CAVOK 17/07 Q1015
TAF LFRG 301400Z 3015/3024 16010KT CAVOK
       
LFRH 302200Z AUTO VRB02KT CAVOK 11/10 Q1014 TEMPO 3000 BR BECMG BKN010
TAF AMD LFRH 301933Z 3019/3118 15010KT CAVOK 
     TEMPO 3021/3023 3000 BR BKN005 
     BECMG 3023/3024 25010KT 5000 RADZ BKN010 
     TEMPO 3100/3106 24010G20KT 
     BECMG 3103/3105 NSW SCT010 
     BECMG 3112/3114 20015G30KT 
     TEMPO 3112/3118 5000 SHRA BKN010TCU
       
LFRI 302200Z AUTO 16005KT CAVOK 14/08 Q1015
TAF LFRI 301700Z 3018/3118 18008KT CAVOK 
     BECMG 3101/3103 29010KT BKN014 
     TEMPO 3104/3110 4000 -RADZ BKN006 
     BECMG 3110/3112 BKN020
       
LFRJ 302200Z AUTO 26005KT CAVOK 12/09 Q1013
TAF LFRJ 302000Z 3021/3106 18010KT CAVOK 
     BECMG 3022/3024 BKN010 OVC015 
     TEMPO 3100/3106 20015G25KT 4000 RA BKN007 OVC015
       
LFRK 302200Z AUTO 13005KT CAVOK 14/08 Q1014
TAF LFRK 301400Z 3015/3024 17012KT CAVOK
       
LFRL 302200Z AUTO 18010KT 9999 FEW042 BKN050 BKN080 12/10 Q1013
TAF AMD LFRL 301709Z 3017/3024 17012G22KT CAVOK 
     PROB40 
     TEMPO 3018/3021 BKN010 
     BECMG 3021/3023 3000 RADZ SCT005 BKN010 BKN015 
     PROB40 
     TEMPO 3022/3024 BKN005
       
LFRM 302200Z AUTO 09002KT CAVOK 15/08 Q1016
TAF LFRM 301700Z 3018/3103 17004KT CAVOK
       
LFRN 302200Z AUTO 18005KT CAVOK 14/09 Q1014 NOSIG
TAF LFRN 301700Z 3018/3118 15010KT CAVOK 
     BECMG 3100/3103 23010KT 
     BECMG 3103/3105 4000 RADZ BKN008 
     PROB30 
     TEMPO 3105/3107 BKN003 
     BECMG 3107/3109 9999 NSW BKN020 
     PROB30 
     TEMPO 3109/3118 5000 SHRA 
     BECMG 3113/3115 21015G25KT
       
LFRO 302200Z AUTO 14005KT CAVOK 13/09 Q1012
TAF LFRO 301100Z 3012/3112 16014KT CAVOK 
     TEMPO 3013/3016 17015G25KT 
     TEMPO 3100/3103 3000 RADZ BKN007 BKN020 
     BECMG 3103/3106 NSW SCT015
       
LFRQ 302200Z AUTO 21005KT 170V240 7000 OVC004 11/11 Q1014 TEMPO 2000 RADZ BKN005 BECMG 22015G25KT
TAF LFRQ 301700Z 3018/3103 17012KT 9999 SCT020 BKN100 
     BECMG 3019/3022 22015G25KT 4000 -RA BKN008 
     TEMPO 3022/3103 2000 RADZ BKN005
       
LFRS 302200Z AUTO 16005KT CAVOK 13/08 Q1014 NOSIG
TAF LFRS 301700Z 3018/3124 18005KT CAVOK 
     BECMG 3101/3103 26010KT BKN014 
     TEMPO 3104/3110 4000 -RADZ OVC005 
     BECMG 3110/3112 BKN030 
     TEMPO 3120/3124 -SHRA BKN025TCU
       
LFRT 302100Z AUTO 21007KT 180V240 CAVOK 14/08 Q1014
LFRU 302000Z AUTO 15006KT CAVOK 14/09 Q1013
LFRV 302200Z AUTO 15008KT CAVOK 12/10 Q1013
LFRZ 302200Z AUTO 14003KT CAVOK 12/09 Q1014 NOSIG
TAF LFRZ 301700Z 3018/3118 19010KT CAVOK 
     BECMG 3101/3103 25010KT BKN012 
     TEMPO 3103/3109 4000 -RA BKN005 
     BECMG 3109/3111 BKN035
       
LFSB 302200Z VRB02KT CAVOK 10/05 Q1022 NOSIG
TAF LFSB 301657Z 3018/3118 11005KT CAVOK 
     TEMPO 3113/3118 29010KT
       
LFSD 302200Z AUTO 00000KT CAVOK 09/06 Q1021
LFSG 302200Z AUTO VRB03KT CAVOK 11/06 Q1021
LFSI 302200Z AUTO 10007KT 9999 ////// 12/06 Q1019
TAF LFSI 302000Z 3021/3121 11005KT CAVOK 
     BECMG 3116/3118 BKN030TCU 
     TEMPO 3116/3121 20015G25KT 2000 SHRA
       
LFSL 302200Z AUTO 13009KT CAVOK 16/00 Q1019
TAF LFSL 301400Z 3015/3024 16008KT CAVOK
       
LFSN 302200Z AUTO 11004KT CAVOK 09/06 Q1021
LFSO 302200Z AUTO 13006KT CAVOK 13/07 Q1020 NOSIG
TAF LFSO 302000Z 3021/3121 12005KT CAVOK
       
LFST 302200Z AUTO 24003KT CAVOK 10/06 Q1021 NOSIG
TAF LFST 301700Z 3018/3118 VRB03KT CAVOK 
     BECMG 3107/3110 18007KT 
     PROB40 
     TEMPO 3113/3117 24010KT
       
LFSX 302200Z AUTO 06003KT CAVOK 11/04 Q1021 NOSIG
TAF LFSX 302000Z 3021/3121 VRB05KT CAVOK 
     BECMG 3108/3111 21010KT 
     TEMPO 3112/3115 21010G20KT 
     BECMG 3117/3120 VRB05KT
       
LFTH 302200Z AUTO 00000KT CAVOK 10/08 Q1025 TEMPO 0500 FG VV///
TAF LFTH 302000Z 3021/3121 VRB03KT 8000 NSC 
     PROB40 
     TEMPO 3021/3106 3000 BR 
     PROB30 
     TEMPO 3021/3106 0500 FG VV/// 
     BECMG 3110/3112 12008KT CAVOK 
     TEMPO 3112/3121 SCT016
       
LFTW 302200Z AUTO 14006KT 8000 NSC 12/11 Q1025
TAF LFTW 301400Z 3015/3115 18008KT CAVOK 
     PROB30 
     TEMPO 3018/3021 BKN010 
     BECMG 3021/3024 VRB03KT BKN010 
     BECMG 3109/3112 SCT015 BKN120 
     BECMG 3112/3115 18010KT
       
LFVP 302100Z 03032KT 8000 -RA BKN018 01/00 Q0993 NOSIG
TAF LFVP 301700Z 3018/3103 06030G40KT 3500 -RA BR OVC008 
     TEMPO 3018/3103 -RASN 
     BECMG 3019/3021 02030G40KT 3000 -RADZ BR BKN012 
     BECMG 3100/3102 02035G50KT
       
LFYR 302200Z AUTO VRB02KT CAVOK 11/07 Q1017
LFRG 302200Z AUTO 19008KT CAVOK 17/07 Q1015
TAF LFRG 301400Z 3015/3024 16010KT CAVOK
       
LFRN 302200Z AUTO 18005KT CAVOK 14/09 Q1014 NOSIG
TAF LFRN 301700Z 3018/3118 15010KT CAVOK 
     BECMG 3100/3103 23010KT 
     BECMG 3103/3105 4000 RADZ BKN008 
     PROB30 
     TEMPO 3105/3107 BKN003 
     BECMG 3107/3109 9999 NSW BKN020 
     PROB30 
     TEMPO 3109/3118 5000 SHRA 
     BECMG 3113/3115 21015G25KT
       
LFKF 302200Z AUTO 03004KT 9999 BKN006 07/06 Q1026
TAF LFKF 301400Z 3015/3115 26008KT 9999 FEW035
       
LFGJ 302200Z AUTO 15005KT CAVOK 09/07 Q1021
TAF LFGJ 301401Z 3015/3024 15005KT CAVOK
       
LFOB 302200Z AUTO 11007KT CAVOK 13/06 Q1017 NOSIG
TAF LFOB 301700Z 3018/3118 13007KT CAVOK 
     BECMG 3108/3110 20012KT 
     TEMPO 3110/3118 4000 SHRA BKN030TCU 
     PROB30 
     TEMPO 3112/3115 20015G25KT 2000 TSRA BKN013CB
       
LFPN 302200Z AUTO 18006KT CAVOK 16/06 Q1017
TAF LFPN 301700Z 3018/3103 12005KT CAVOK
       
LFOT 302200Z AUTO 13004KT CAVOK 14/07 Q1016 NOSIG
TAF LFOT 301700Z 3018/3118 18007KT CAVOK 
     TEMPO 3109/3118 -SHRA BKN018 SCT025TCU 
     PROB40 
     TEMPO 3112/3118 22015G25KT 4000 SHRA BKN008 SCT018CB
       
LFOP 302200Z AUTO 14006KT CAVOK 13/06 Q1016
TAF LFOP 301700Z 3018/3118 16007KT CAVOK 
     BECMG 3108/3110 22010KT 
     TEMPO 3108/3118 4000 SHRA BKN030TCU 
     PROB30 
     TEMPO 3108/3115 2000 TSRA BKN013CB
       
LFOK 302200Z AUTO 15010KT CAVOK 12/06 Q1018 NOSIG
TAF LFOK 301700Z 3018/3118 13006KT CAVOK 
     BECMG 3105/3107 19010KT 
     BECMG 3112/3114 25012KT 
     TEMPO 3114/3118 4000 SHRA BKN040CB 
     PROB40 3114/3118 2000 TSRA BKN013 BKN030CB
       
LFPV 302200Z AUTO 16004KT CAVOK 17/05 Q1017 NOSIG
TAF LFPV 302000Z 3021/3121 15006KT CAVOK 
     TEMPO 3112/3118 5000 SHRA SCT025 BKN030TCU 
     PROB40 
     TEMPO 3113/3116 21015G25KT 3000 TSRA BKN015 BKN025CB
       
LFMU 302200Z AUTO 09006KT CAVOK 13/09 Q1023
TAF LFMU 301400Z 3015/3115 12010KT CAVOK 
     PROB30 
     TEMPO 3015/3018 BKN008 
     BECMG 3018/3022 06012KT BKN010
       
LFPM 302200Z AUTO 15006KT CAVOK 13/07 Q1017